Time;durP1;ratioP1;P1;durP2;ratioP2;P2;SDS_P1;SDS_P2;PMS_P1;PMS_P2;Temp;Humidity;BMP_temperature;BMP_pressure;BME280_temperature;BME280_humidity;BME280_pressure;Samples;Min_cycle;Max_cycle;Signal;HPM_P1;HPM_P2
2022/09/27 00:00:27;;;;;;;8.63;0.70;;;9.40;99.90;;;;;;5045627;28;20473;-41
2022/09/27 00:02:52;;;;;;;7.70;0.50;;;9.40;99.90;;;;;;5046116;28;20509;-42
2022/09/27 00:05:18;;;;;;;6.05;0.30;;;9.50;99.90;;;;;;5045311;28;20053;-41
2022/09/27 00:07:44;;;;;;;8.70;0.70;;;8.90;99.90;;;;;;5045393;28;20052;-41
2022/09/27 00:10:10;;;;;;;8.20;0.40;;;9.10;99.90;;;;;;5045082;28;21411;-41
2022/09/27 00:12:37;;;;;;;5.88;0.77;;;9.00;99.90;;;;;;5044955;28;20059;-41
2022/09/27 00:15:04;;;;;;;12.45;0.50;;;9.10;99.90;;;;;;5045231;28;20059;-41
2022/09/27 00:17:30;;;;;;;9.75;0.80;;;8.90;99.90;;;;;;5045080;28;20047;-41
2022/09/27 00:19:58;;;;;;;7.70;0.30;;;9.30;99.90;;;;;;5045506;28;20124;-42
2022/09/27 00:22:25;;;;;;;11.75;0.40;;;9.50;99.90;;;;;;5045057;28;20044;-41
2022/09/27 00:24:51;;;;;;;11.68;0.43;;;8.90;99.90;;;;;;5045294;28;20110;-41
2022/09/27 00:27:17;;;;;;;9.18;0.52;;;8.80;99.90;;;;;;5044794;28;20044;-41
2022/09/27 00:29:44;;;;;;;5.25;0.30;;;8.80;99.90;;;;;;5045499;28;20482;-42
2022/09/27 00:32:11;;;;;;;4.18;0.30;;;8.70;99.90;;;;;;5045404;28;20041;-41
2022/09/27 00:34:36;;;;;;;4.55;0.20;;;8.80;99.90;;;;;;5045352;28;20049;-41
2022/09/27 00:37:02;;;;;;;6.90;0.30;;;8.60;99.90;;;;;;5045061;28;20045;-41
2022/09/27 00:39:28;;;;;;;6.75;0.55;;;8.70;99.90;;;;;;5043570;28;20111;-41
2022/09/27 00:41:54;;;;;;;5.90;0.47;;;9.00;99.90;;;;;;5045340;28;20048;-41
2022/09/27 00:44:26;;;;;;;9.80;0.30;;;8.90;99.90;;;;;;5044268;28;20491;-41
2022/09/27 00:47:23;;;;;;;5.43;0.50;;;8.90;99.90;;;;;;5045557;28;20305;-41
2022/09/27 00:50:04;;;;;;;8.60;1.25;;;8.10;99.90;;;;;;5045748;28;20029;-41
2022/09/27 00:52:57;;;;;;;8.73;0.75;;;8.10;99.90;;;;;;5045177;28;20533;-42
2022/09/27 00:55:31;;;;;;;10.50;1.60;;;8.00;99.90;;;;;;5045059;28;20552;-41
2022/09/27 00:57:57;;;;;;;10.57;1.30;;;8.10;99.90;;;;;;5045706;28;20045;-41
2022/09/27 01:00:23;;;;;;;3.67;0.40;;;8.30;99.90;;;;;;5045773;28;20049;-41
2022/09/27 01:02:52;;;;;;;5.35;0.68;;;8.20;99.90;;;;;;5045849;28;20390;-41
2022/09/27 01:05:20;;;;;;;4.07;0.30;;;8.10;99.90;;;;;;5045686;28;20044;-41
2022/09/27 01:07:46;;;;;;;6.97;0.47;;;8.00;99.90;;;;;;5045484;28;20041;-41
2022/09/27 01:10:14;;;;;;;6.38;0.40;;;8.00;99.90;;;;;;5045369;28;20473;-41
2022/09/27 01:12:59;;;;;;;6.90;0.30;;;8.00;99.90;;;;;;5045144;28;20084;-41
2022/09/27 01:15:54;;;;;;;5.28;0.30;;;8.00;99.90;;;;;;5045443;28;20116;-41
2022/09/27 01:18:29;;;;;;;5.47;0.30;;;8.40;99.90;;;;;;5039694;28;20080;-43
2022/09/27 01:21:10;;;;;;;4.43;0.28;;;8.00;99.90;;;;;;5045436;28;20120;-41
2022/09/27 01:23:39;;;;;;;14.80;0.47;;;8.00;99.90;;;;;;5044617;28;20122;-41
2022/09/27 01:26:32;;;;;;;7.60;0.45;;;8.00;99.90;;;;;;5045134;28;20037;-41
2022/09/27 01:29:13;;;;;;;7.15;0.40;;;8.10;99.90;;;;;;5045284;28;20124;-42
2022/09/27 01:32:04;;;;;;;7.18;0.35;;;8.10;99.90;;;;;;5044555;28;20045;-41
2022/09/27 01:34:58;;;;;;;3.35;0.25;;;8.10;99.90;;;;;;5043053;28;20049;-41
2022/09/27 01:37:46;;;;;;;3.65;0.25;;;8.20;99.90;;;;;;5044651;28;20060;-41
2022/09/27 01:40:35;;;;;;;9.50;0.25;;;8.20;99.90;;;;;;5046555;28;20045;-41
2022/09/27 01:43:22;;;;;;;8.38;0.73;;;8.20;99.90;;;;;;5049063;28;20052;-41
2022/09/27 01:45:55;;;;;;;5.30;0.40;;;8.20;99.90;;;;;;5048529;28;20044;-41
2022/09/27 01:48:23;;;;;;;7.53;0.50;;;8.20;99.90;;;;;;5048250;28;20376;-41
2022/09/27 01:51:01;;;;;;;5.35;0.50;;;8.20;99.90;;;;;;5048317;28;20432;-41
2022/09/27 01:53:35;;;;;;;4.82;0.50;;;9.50;99.90;;;;;;5047961;28;20126;-42
2022/09/27 01:56:05;;;;;;;4.60;0.75;;;8.20;99.90;;;;;;5048587;28;20466;-41
2022/09/27 01:58:43;;;;;;;6.70;0.40;;;8.30;99.90;;;;;;5048139;28;20380;-41
2022/09/27 02:01:11;;;;;;;3.22;0.22;;;8.30;99.90;;;;;;5048207;28;20049;-41
2022/09/27 02:03:42;;;;;;;6.88;0.80;;;8.30;99.90;;;;;;5047844;28;20070;-41
2022/09/27 02:06:13;;;;;;;7.45;0.40;;;8.40;99.90;;;;;;5048008;28;20049;-41
2022/09/27 02:09:12;;;;;;;8.83;0.40;;;8.50;99.90;;;;;;5047402;28;20068;-41
2022/09/27 02:11:44;;;;;;;4.95;0.60;;;8.50;99.90;;;;;;5047302;28;20459;-41
2022/09/27 02:14:21;;;;;;;10.13;0.40;;;8.60;99.90;;;;;;5047435;28;20051;-41
2022/09/27 02:16:50;;;;;;;6.30;0.30;;;8.60;99.90;;;;;;5047443;28;20367;-43
2022/09/27 02:19:19;;;;;;;3.65;0.30;;;8.60;99.90;;;;;;5047642;28;20065;-41
2022/09/27 02:22:17;;;;;;;3.95;0.52;;;8.70;99.90;;;;;;5047340;28;20041;-42
2022/09/27 02:24:49;;;;;;;5.47;0.20;;;8.70;99.90;;;;;;5047803;28;20449;-41
2022/09/27 02:27:26;;;;;;;4.82;0.35;;;8.80;99.90;;;;;;5047490;28;20068;-41
2022/09/27 02:30:13;;;;;;;5.55;0.20;;;8.70;99.90;;;;;;5047476;28;20055;-41
2022/09/27 02:32:39;;;;;;;8.93;0.30;;;8.80;99.90;;;;;;5047319;28;20044;-41
2022/09/27 02:35:09;;;;;;;2.67;0.30;;;8.80;99.90;;;;;;5047474;28;20116;-41
2022/09/27 02:37:34;;;;;;;6.45;0.28;;;8.70;99.90;;;;;;5047388;28;20041;-41
2022/09/27 02:40:03;;;;;;;6.63;0.38;;;8.80;99.90;;;;;;5047707;28;20486;-42
2022/09/27 02:42:30;;;;;;;1.02;0.10;;;8.60;99.90;;;;;;5047513;28;20045;-42
2022/09/27 02:44:56;;;;;;;6.75;0.20;;;8.70;99.90;;;;;;5047630;28;20076;-41
2022/09/27 02:47:35;;;;;;;4.78;0.30;;;8.70;99.90;;;;;;5047317;28;20036;-42
2022/09/27 02:50:35;;;;;;;8.27;0.20;;;8.70;99.90;;;;;;5047202;28;20037;-41
2022/09/27 02:53:42;;;;;;;3.42;0.20;;;8.70;99.90;;;;;;5046929;28;20300;-41
2022/09/27 02:56:22;;;;;;;4.53;0.20;;;8.70;99.90;;;;;;5046828;28;20491;-42
2022/09/27 02:59:17;;;;;;;3.03;0.20;;;8.60;99.90;;;;;;5046605;28;20357;-41
2022/09/27 03:02:05;;;;;;;5.63;0.20;;;8.60;99.90;;;;;;5046905;28;20052;-41
2022/09/27 03:04:43;;;;;;;8.30;0.30;;;8.50;99.90;;;;;;5047090;28;20067;-41
2022/09/27 03:07:11;;;;;;;4.72;0.20;;;8.50;99.90;;;;;;5046929;28;20124;-41
2022/09/27 03:09:47;;;;;;;4.65;0.20;;;8.80;99.90;;;;;;5046451;28;20041;-41
2022/09/27 03:12:13;;;;;;;6.38;0.30;;;9.00;99.90;;;;;;5046687;28;20869;-41
2022/09/27 03:14:39;;;;;;;10.65;0.50;;;8.60;99.90;;;;;;5046896;28;20044;-41
2022/09/27 03:17:05;;;;;;;6.55;0.40;;;9.40;99.90;;;;;;5047048;28;20055;-42
2022/09/27 03:19:31;;;;;;;3.53;0.30;;;8.60;99.90;;;;;;5046758;28;20044;-41
2022/09/27 03:21:56;;;;;;;3.03;0.30;;;8.60;99.90;;;;;;5046542;28;20049;-42
2022/09/27 03:24:22;;;;;;;4.35;0.32;;;9.30;99.90;;;;;;5046310;28;20045;-41
2022/09/27 03:26:48;;;;;;;10.32;0.40;;;9.60;99.90;;;;;;5045957;28;20037;-41
2022/09/27 03:29:14;;;;;;;4.97;0.30;;;8.50;99.90;;;;;;5045992;28;20414;-42
2022/09/27 03:31:40;;;;;;;3.70;0.25;;;8.60;99.90;;;;;;5045955;28;20150;-41
2022/09/27 03:34:06;;;;;;;3.60;0.45;;;8.50;99.90;;;;;;5046132;28;20076;-41
2022/09/27 03:36:37;;;;;;;4.93;0.20;;;9.20;99.90;;;;;;5046399;28;20179;-41
2022/09/27 03:39:03;;;;;;;4.43;0.40;;;8.40;99.90;;;;;;5044295;28;20044;-42
2022/09/27 03:41:29;;;;;;;7.72;0.30;;;8.40;99.90;;;;;;5045720;28;20098;-41
2022/09/27 03:43:58;;;;;;;7.38;0.20;;;9.40;99.90;;;;;;5045543;28;20064;-41
2022/09/27 03:46:24;;;;;;;3.63;0.80;;;8.90;99.90;;;;;;5045722;28;20052;-41
2022/09/27 03:48:50;;;;;;;3.03;0.20;;;9.10;99.90;;;;;;5045489;28;20128;-43
2022/09/27 03:51:16;;;;;;;6.10;0.20;;;8.20;99.90;;;;;;5045426;28;20119;-41
2022/09/27 03:53:42;;;;;;;3.83;0.17;;;8.10;99.90;;;;;;5045777;28;20049;-42
2022/09/27 03:56:08;;;;;;;5.30;0.40;;;8.80;99.90;;;;;;5044359;28;20580;-41
2022/09/27 03:58:34;;;;;;;3.30;0.20;;;8.00;99.90;;;;;;5045747;28;20059;-41
2022/09/27 04:01:00;;;;;;;6.05;0.10;;;7.90;99.90;;;;;;5045400;28;20041;-41
2022/09/27 04:03:25;;;;;;;9.02;0.20;;;7.90;99.90;;;;;;5044880;28;20114;-41
2022/09/27 04:05:52;;;;;;;4.07;0.30;;;7.80;99.90;;;;;;5045096;28;20044;-41
2022/09/27 04:08:19;;;;;;;7.15;0.38;;;8.40;99.90;;;;;;5043443;28;20052;-41
2022/09/27 04:10:45;;;;;;;9.02;0.40;;;7.70;99.90;;;;;;5045073;28;20061;-41
2022/09/27 04:13:11;;;;;;;3.92;0.30;;;8.00;99.90;;;;;;5044094;28;20506;-44
2022/09/27 04:15:38;;;;;;;5.95;0.20;;;7.60;99.90;;;;;;5045915;28;20045;-41
2022/09/27 04:18:04;;;;;;;2.75;0.10;;;7.60;99.90;;;;;;5045639;28;20067;-41
2022/09/27 04:20:30;;;;;;;8.40;0.20;;;7.60;99.90;;;;;;5045060;28;20483;-41
2022/09/27 04:22:56;;;;;;;4.95;0.15;;;7.50;99.90;;;;;;5045206;28;20072;-41
2022/09/27 04:25:22;;;;;;;8.27;0.25;;;7.40;99.90;;;;;;5045614;28;20076;-41
2022/09/27 04:27:54;;;;;;;4.43;0.20;;;7.40;99.90;;;;;;5045315;28;20051;-41
2022/09/27 04:30:21;;;;;;;5.68;1.10;;;8.00;99.90;;;;;;5045362;28;20419;-41
2022/09/27 04:32:47;;;;;;;5.28;0.30;;;7.40;99.90;;;;;;5045137;28;20091;-43
2022/09/27 04:37:58;;;;;;;4.38;0.40;;;7.40;99.90;;;;;;5045827;28;20297;-41
2022/09/27 04:40:24;;;;;;;5.05;0.20;;;7.90;99.90;;;;;;5045670;28;20095;-41
2022/09/27 04:42:51;;;;;;;4.50;0.20;;;7.40;99.90;;;;;;5045420;28;20393;-41
2022/09/27 04:45:18;;;;;;;6.80;0.30;;;7.50;99.90;;;;;;5044955;28;20041;-42
2022/09/27 04:47:48;;;;;;;7.07;0.30;;;7.60;99.90;;;;;;5044855;28;20075;-41
2022/09/27 04:50:14;;;;;;;4.38;0.20;;;7.60;99.90;;;;;;5044552;28;20037;-43
2022/09/27 04:52:40;;;;;;;5.55;0.25;;;7.70;99.90;;;;;;5045128;28;20083;-42
2022/09/27 04:55:10;;;;;;;4.05;0.30;;;7.70;99.90;;;;;;5044938;28;20565;-41
2022/09/27 04:57:36;;;;;;;11.98;0.30;;;7.80;99.90;;;;;;5045533;28;20589;-41
2022/09/27 05:00:03;;;;;;;4.93;0.40;;;7.80;99.90;;;;;;5043576;28;20052;-41
2022/09/27 05:02:30;;;;;;;4.68;0.30;;;7.80;99.90;;;;;;5045353;28;20041;-41
2022/09/27 05:04:57;;;;;;;5.93;0.30;;;8.10;99.90;;;;;;5045488;28;20094;-40
2022/09/27 05:07:23;;;;;;;6.95;0.50;;;7.90;99.90;;;;;;5045287;28;20483;-41
2022/09/27 05:09:49;;;;;;;4.25;0.20;;;7.90;99.90;;;;;;5045725;28;20130;-40
2022/09/27 05:12:14;;;;;;;4.10;0.20;;;7.90;99.90;;;;;;5044795;28;20388;-40
2022/09/27 05:14:40;;;;;;;5.20;0.30;;;7.90;99.90;;;;;;5046035;28;20490;-41
2022/09/27 05:17:06;;;;;;;5.57;0.60;;;8.00;99.90;;;;;;5049364;28;20041;-40
2022/09/27 05:19:33;;;;;;;3.83;0.20;;;8.00;99.90;;;;;;5049297;28;20044;-41
2022/09/27 05:21:58;;;;;;;3.70;0.20;;;8.00;99.90;;;;;;5049046;28;20041;-40
2022/09/27 05:24:26;;;;;;;4.65;0.20;;;8.00;99.90;;;;;;5049156;28;20462;-40
2022/09/27 05:26:53;;;;;;;6.00;0.20;;;8.90;99.90;;;;;;5049258;28;20052;-40
2022/09/27 05:29:19;;;;;;;5.95;0.60;;;8.00;99.90;;;;;;5049096;28;20414;-40
2022/09/27 05:31:46;;;;;;;5.88;0.25;;;8.00;99.90;;;;;;5049226;28;20483;-40
2022/09/27 05:34:12;;;;;;;7.72;1.27;;;8.20;99.90;;;;;;5048869;28;20056;-40
2022/09/27 05:36:37;;;;;;;4.22;0.32;;;8.00;99.90;;;;;;5049016;28;20474;-40
2022/09/27 05:39:04;;;;;;;5.32;0.60;;;8.00;99.90;;;;;;5048164;28;20430;-40
2022/09/27 05:41:31;;;;;;;8.80;0.30;;;8.00;99.90;;;;;;5049094;28;20255;-40
2022/09/27 05:43:58;;;;;;;7.88;0.30;;;8.00;99.90;;;;;;5049008;28;20095;-41
2022/09/27 05:46:23;;;;;;;8.20;0.55;;;7.90;99.90;;;;;;5048932;28;20073;-41
2022/09/27 05:48:49;;;;;;;2.35;0.70;;;8.00;99.90;;;;;;5048602;28;20143;-40
2022/09/27 05:51:15;;;;;;;5.68;0.20;;;8.70;99.90;;;;;;5048220;28;20049;-41
2022/09/27 05:53:40;;;;;;;9.05;0.65;;;8.00;99.90;;;;;;5046418;28;20060;-40
2022/09/27 05:56:06;;;;;;;9.15;0.30;;;8.00;99.90;;;;;;5047385;28;20045;-41
2022/09/27 05:58:33;;;;;;;6.22;0.40;;;8.00;99.90;;;;;;5047942;28;20049;-41
2022/09/27 06:00:59;;;;;;;3.97;0.28;;;8.50;99.90;;;;;;5048274;28;20052;-41
2022/09/27 06:03:24;;;;;;;7.22;0.50;;;8.20;99.90;;;;;;5047931;28;20037;-42
2022/09/27 06:05:50;;;;;;;3.75;0.30;;;8.10;99.90;;;;;;5048269;28;20084;-41
2022/09/27 06:08:16;;;;;;;4.38;0.30;;;8.10;99.90;;;;;;5047899;28;20048;-41
2022/09/27 06:10:41;;;;;;;8.07;0.30;;;8.10;99.90;;;;;;5046952;28;20092;-40
2022/09/27 06:13:13;;;;;;;5.10;0.32;;;8.10;99.90;;;;;;5046530;28;20072;-42
2022/09/27 06:15:40;;;;;;;5.87;0.30;;;8.20;99.90;;;;;;5046893;28;20395;-41
2022/09/27 06:18:14;;;;;;;6.90;0.40;;;8.20;99.90;;;;;;5046884;28;20045;-41
2022/09/27 06:20:41;;;;;;;4.07;0.28;;;8.20;99.90;;;;;;5047117;28;20124;-40
2022/09/27 06:23:17;;;;;;;8.50;0.50;;;9.00;99.90;;;;;;5046895;28;20045;-40
2022/09/27 06:25:44;;;;;;;8.75;0.47;;;8.30;99.90;;;;;;5046781;28;20336;-40
2022/09/27 06:28:11;;;;;;;8.65;1.20;;;8.30;99.90;;;;;;5047260;28;20073;-41
2022/09/27 06:30:45;;;;;;;6.20;0.30;;;9.10;99.90;;;;;;5046955;28;20077;-40
2022/09/27 06:33:13;;;;;;;4.82;0.20;;;8.50;99.90;;;;;;5046438;28;20051;-41
2022/09/27 06:35:40;;;;;;;5.05;0.70;;;8.50;99.90;;;;;;5046129;28;20506;-41
2022/09/27 06:38:09;;;;;;;5.70;0.20;;;8.60;99.90;;;;;;5046297;28;20055;-41
2022/09/27 06:40:35;;;;;;;3.97;0.32;;;8.70;99.90;;;;;;5046136;28;20041;-40
2022/09/27 06:43:07;;;;;;;4.53;0.40;;;8.80;99.90;;;;;;5045929;28;20051;-41
2022/09/27 06:45:34;;;;;;;4.53;0.50;;;8.90;99.90;;;;;;5046013;28;20049;-40
2022/09/27 06:48:01;;;;;;;2.00;0.30;;;9.80;99.90;;;;;;5046328;28;20044;-41
2022/09/27 06:50:33;;;;;;;4.10;0.40;;;9.10;99.90;;;;;;5045145;28;20155;-41
2022/09/27 06:52:58;;;;;;;4.38;0.80;;;9.20;99.90;;;;;;5045895;28;20040;-40
2022/09/27 06:55:24;;;;;;;3.97;0.32;;;9.30;99.90;;;;;;5045217;28;20052;-42
2022/09/27 07:00:39;;;;;;;5.00;0.93;;;10.20;99.90;;;;;;5046081;28;20095;-41
2022/09/27 07:03:04;;;;;;;4.13;0.50;;;9.50;99.90;;;;;;5046128;28;20033;-41
2022/09/27 07:05:30;;;;;;;2.90;0.30;;;9.50;99.90;;;;;;5046215;28;20122;-41
2022/09/27 07:07:57;;;;;;;7.82;0.40;;;10.40;99.90;;;;;;5046632;28;20048;-41
2022/09/27 07:10:29;;;;;;;7.05;0.60;;;9.60;99.90;;;;;;5007720;28;1095629;-40
2022/09/27 07:12:55;;;;;;;3.92;0.30;;;9.40;99.90;;;;;;5047071;28;20083;-41
2022/09/27 07:15:22;;;;;;;2.25;0.22;;;10.40;99.90;;;;;;5046811;28;20045;-40
2022/09/27 07:17:56;;;;;;;5.60;1.15;;;10.60;99.90;;;;;;5046873;28;20152;-40
2022/09/27 07:20:22;;;;;;;3.70;0.30;;;9.60;99.90;;;;;;5046286;28;20514;-41
2022/09/27 07:22:48;;;;;;;4.07;0.35;;;10.30;99.90;;;;;;5046960;28;20045;-40
2022/09/27 07:25:14;;;;;;;13.95;0.60;;;9.70;99.90;;;;;;5046252;28;20040;-41
2022/09/27 07:27:40;;;;;;;1.90;0.30;;;9.90;99.90;;;;;;5046647;28;20492;-41
2022/09/27 07:30:08;;;;;;;5.78;0.40;;;10.10;99.90;;;;;;5046614;28;20041;-41
2022/09/27 07:32:37;;;;;;;5.90;0.30;;;10.20;99.90;;;;;;5046464;28;20082;-40
2022/09/27 07:35:07;;;;;;;7.10;0.40;;;11.00;99.90;;;;;;5046378;28;20140;-40
2022/09/27 07:37:35;;;;;;;4.05;0.35;;;10.40;99.90;;;;;;5045276;28;20264;-41
2022/09/27 07:40:02;;;;;;;2.97;0.30;;;10.50;99.90;;;;;;5046241;28;20032;-41
2022/09/27 07:42:28;;;;;;;1.85;0.20;;;10.60;99.90;;;;;;5046428;28;20155;-42
2022/09/27 07:44:54;;;;;;;1.60;0.20;;;10.80;99.90;;;;;;5046450;28;20128;-41
2022/09/27 07:47:23;;;;;;;1.88;0.20;;;11.80;99.90;;;;;;5046391;28;20040;-41
2022/09/27 07:49:51;;;;;;;3.50;0.30;;;11.10;99.90;;;;;;5046562;28;20126;-42
2022/09/27 07:52:18;;;;;;;7.22;0.50;;;11.10;99.90;;;;;;5046699;28;20044;-41
2022/09/27 07:54:43;;;;;;;4.10;0.35;;;11.10;99.90;;;;;;5046479;28;20041;-42
2022/09/27 07:57:10;;;;;;;5.28;0.28;;;11.00;99.90;;;;;;5045996;28;20072;-41
2022/09/27 07:59:35;;;;;;;1.73;0.20;;;11.40;99.90;;;;;;5045599;28;20060;-42
2022/09/27 08:02:01;;;;;;;3.92;0.60;;;10.90;99.90;;;;;;5045561;28;20395;-41
2022/09/27 08:04:27;;;;;;;5.28;0.85;;;10.80;99.90;;;;;;5045311;28;20041;-41
2022/09/27 08:06:53;;;;;;;2.45;0.30;;;11.00;99.90;;;;;;5045650;28;20406;-41
2022/09/27 08:09:19;;;;;;;10.77;0.30;;;10.90;99.90;;;;;;5045453;28;20443;-41
2022/09/27 08:11:45;;;;;;;4.68;0.45;;;10.80;99.90;;;;;;5045197;28;20064;-41
2022/09/27 08:14:11;;;;;;;5.15;0.20;;;10.80;99.90;;;;;;5045624;28;20075;-41
2022/09/27 08:16:37;;;;;;;4.57;0.13;;;10.80;99.90;;;;;;5045382;28;20045;-42
2022/09/27 08:19:03;;;;;;;6.13;1.10;;;10.90;99.90;;;;;;5045398;28;20044;-43
2022/09/27 08:21:29;;;;;;;5.90;0.43;;;11.40;99.90;;;;;;5045020;28;20041;-41
2022/09/27 08:23:55;;;;;;;2.35;0.20;;;11.40;99.90;;;;;;5045708;28;20045;-40
2022/09/27 08:26:21;;;;;;;3.55;0.40;;;11.60;99.90;;;;;;5045833;28;20041;-42
2022/09/27 08:28:47;;;;;;;2.50;0.10;;;11.80;99.90;;;;;;5045537;28;20143;-41
2022/09/27 08:31:13;;;;;;;2.40;0.20;;;11.80;99.90;;;;;;5044173;28;20119;-41
2022/09/27 08:33:39;;;;;;;1.98;0.20;;;12.10;99.90;;;;;;5045655;28;20391;-41
2022/09/27 08:36:10;;;;;;;5.90;0.50;;;11.90;99.90;;;;;;5045284;28;20094;-42
2022/09/27 08:38:36;;;;;;;2.70;0.13;;;12.10;99.90;;;;;;5045342;28;20060;-42
2022/09/27 08:41:48;;;;;;;8.82;0.30;;;12.40;99.90;;;;;;5044014;28;20050;-42
2022/09/27 08:44:28;;;;;;;5.13;0.82;;;12.20;99.90;;;;;;5044561;28;20130;-42
2022/09/27 08:47:05;;;;;;;4.43;0.35;;;12.10;99.90;;;;;;5045486;28;20044;-42
2022/09/27 08:49:52;;;;;;;3.03;0.22;;;12.70;99.90;;;;;;5045093;28;20052;-42
2022/09/27 08:52:40;;;;;;;3.67;0.43;;;11.90;99.90;;;;;;5044816;28;20044;-41
2022/09/27 08:55:36;;;;;;;4.03;0.20;;;11.80;99.90;;;;;;5044921;28;20049;-42
2022/09/27 08:58:06;;;;;;;2.70;0.10;;;11.80;99.90;;;;;;5037323;28;20078;-43
2022/09/27 09:00:32;;;;;;;0.98;0.10;;;11.80;99.90;;;;;;5044491;28;20103;-42
2022/09/27 09:03:00;;;;;;;2.92;0.10;;;11.80;99.90;;;;;;5044475;28;20068;-41
2022/09/27 09:05:30;;;;;;;4.25;0.10;;;12.30;99.90;;;;;;5044675;28;20450;-42
2022/09/27 09:08:02;;;;;;;2.03;0.00;;;12.60;99.90;;;;;;5045024;28;20048;-43
2022/09/27 09:13:42;;;;;;;0.13;0.00;;;12.80;99.90;;;;;;5044393;28;20499;-42
2022/09/27 09:16:32;;;;;;;0.50;0.00;;;13.40;99.90;;;;;;5044681;28;20083;-43
2022/09/27 09:19:19;;;;;;;0.20;0.00;;;13.60;99.90;;;;;;5044968;28;20048;-42
2022/09/27 09:22:10;;;;;;;2.33;0.10;;;13.70;99.90;;;;;;5044686;28;20045;-42
2022/09/27 09:24:42;;;;;;;2.00;0.10;;;14.00;99.90;;;;;;5033298;28;20475;-43
2022/09/27 09:27:34;;;;;;;0.52;0.10;;;14.10;99.90;;;;;;5044493;28;20776;-42
2022/09/27 09:30:20;;;;;;;0.95;0.10;;;14.30;99.90;;;;;;5043099;28;20059;-42
2022/09/27 09:33:14;;;;;;;0.65;0.00;;;14.50;99.90;;;;;;5044322;28;20505;-42
2022/09/27 09:35:43;;;;;;;0.52;0.03;;;14.80;99.90;;;;;;5044334;28;20576;-43
2022/09/27 09:38:30;;;;;;;2.13;0.10;;;15.10;99.90;;;;;;5045078;28;20546;-42
2022/09/27 09:41:25;;;;;;;1.42;0.08;;;15.20;99.90;;;;;;5044375;28;20045;-42
2022/09/27 09:44:12;;;;;;;2.00;0.63;;;15.20;99.90;;;;;;5021121;28;20045;-43
2022/09/27 09:46:42;;;;;;;0.65;0.00;;;15.30;99.90;;;;;;5044584;28;20124;-44
2022/09/27 09:49:16;;;;;;;1.23;0.10;;;15.30;99.90;;;;;;5044442;28;20069;-42
2022/09/27 09:51:48;;;;;;;2.28;0.10;;;15.40;99.90;;;;;;5043814;28;20041;-42
2022/09/27 09:54:35;;;;;;;1.55;0.10;;;15.40;99.90;;;;;;5044030;28;20049;-43
2022/09/27 09:57:19;;;;;;;1.38;0.10;;;15.40;99.90;;;;;;5043914;28;20455;-41
2022/09/27 10:00:12;;;;;;;1.52;0.10;;;15.30;99.90;;;;;;5044092;28;20059;-41
2022/09/27 10:02:40;;;;;;;1.85;0.10;;;15.20;99.90;;;;;;5047854;28;20122;-41
2022/09/27 10:05:13;;;;;;;2.20;0.10;;;15.20;99.90;;;;;;5047871;28;20147;-41
2022/09/27 10:07:40;;;;;;;5.25;0.20;;;15.30;99.90;;;;;;5047765;28;20532;-42
2022/09/27 10:10:07;;;;;;;4.45;1.67;;;15.40;99.90;;;;;;5047417;28;20506;-42
2022/09/27 10:12:35;;;;;;;3.25;0.10;;;15.60;99.90;;;;;;5047610;28;20049;-41
2022/09/27 10:15:03;;;;;;;0.95;0.00;;;15.70;99.90;;;;;;5047851;28;20040;-42
2022/09/27 10:17:39;;;;;;;3.47;0.10;;;15.70;99.90;;;;;;5047246;28;20490;-41
2022/09/27 10:20:06;;;;;;;0.75;0.00;;;15.70;99.90;;;;;;5047396;28;20439;-42
2022/09/27 10:22:41;;;;;;;4.60;0.30;;;15.70;99.90;;;;;;5047372;28;20049;-42
2022/09/27 10:25:09;;;;;;;2.30;0.20;;;15.70;99.90;;;;;;5047539;28;20479;-41
2022/09/27 10:27:52;;;;;;;3.22;0.17;;;15.70;99.90;;;;;;5047596;28;20477;-42
2022/09/27 10:30:30;;;;;;;;;;;15.70;99.90;;;;;;5047829;28;20037;-42
2022/09/27 10:33:15;;;;;;;1.10;0.20;;;15.40;99.90;;;;;;5046994;28;19932;-41
2022/09/27 10:35:47;;;;;;;1.10;0.00;;;14.90;99.90;;;;;;5047626;28;20048;-41
2022/09/27 10:38:20;;;;;;;2.50;0.00;;;14.40;99.90;;;;;;5047457;28;20044;-42
2022/09/27 10:40:47;;;;;;;1.70;0.00;;;14.00;99.90;;;;;;5047362;28;20045;-41
2022/09/27 10:43:30;;;;;;;1.33;0.05;;;13.60;99.90;;;;;;5047544;28;20071;-41
2022/09/27 10:46:30;;;;;;;0.20;0.00;;;13.50;99.90;;;;;;5047404;28;20049;-42
2022/09/27 10:49:30;;;;;;;2.00;0.08;;;13.30;99.90;;;;;;5047202;28;20033;-41
2022/09/27 10:52:02;;;;;;;1.38;0.00;;;13.20;99.90;;;;;;5013872;28;20049;-40
2022/09/27 10:54:31;;;;;;;2.10;0.00;;;13.10;99.90;;;;;;5047726;28;20534;-40
2022/09/27 10:57:04;;;;;;;0.55;0.00;;;13.10;99.90;;;;;;5047195;28;20045;-40
2022/09/27 10:59:34;;;;;;;1.95;0.00;;;12.70;99.90;;;;;;5047425;28;20040;-41
2022/09/27 11:02:01;;;;;;;0.20;0.00;;;12.70;99.90;;;;;;5046684;28;20049;-43
2022/09/27 11:04:31;;;;;;;4.07;0.00;;;12.40;99.90;;;;;;5046767;28;20637;-41
2022/09/27 11:07:18;;;;;;;0.68;0.00;;;12.40;99.90;;;;;;5047038;28;20124;-41
2022/09/27 11:09:54;;;;;;;0.05;0.00;;;12.30;99.90;;;;;;5044786;28;20573;-41
2022/09/27 11:12:21;;;;;;;1.13;0.00;;;12.50;99.90;;;;;;5045095;28;20099;-41
2022/09/27 11:15:01;;;;;;;1.20;0.00;;;12.30;99.90;;;;;;5046609;28;20053;-42
2022/09/27 11:17:33;;;;;;;1.00;0.00;;;12.50;99.90;;;;;;5046036;28;20048;-40
2022/09/27 11:20:02;;;;;;;;;;;12.90;99.90;;;;;;5041457;28;20033;-43
2022/09/27 11:22:47;;;;;;;0.20;0.00;;;12.30;99.90;;;;;;5035576;28;19925;-40
2022/09/27 11:25:47;;;;;;;2.47;0.17;;;12.60;99.90;;;;;;5044658;28;20045;-39
2022/09/27 11:28:18;;;;;;;0.75;0.00;;;12.50;99.90;;;;;;4992960;28;20126;-40
2022/09/27 11:31:02;;;;;;;3.72;0.10;;;12.50;99.90;;;;;;5044319;28;20052;-44
2022/09/27 11:33:52;;;;;;;1.00;0.00;;;12.60;99.90;;;;;;5043485;28;20044;-41
2022/09/27 11:36:18;;;;;;;1.02;0.10;;;12.70;99.90;;;;;;5043519;28;20055;-39
2022/09/27 11:39:11;;;;;;;1.27;0.10;;;12.80;99.90;;;;;;5043413;28;20049;-39
2022/09/27 11:41:47;;;;;;;2.97;0.10;;;12.80;99.90;;;;;;5044462;28;20433;-39
2022/09/27 11:44:24;;;;;;;0.57;0.00;;;12.80;99.90;;;;;;5042536;28;20470;-39
2022/09/27 11:47:11;;;;;;;2.92;0.00;;;12.80;99.90;;;;;;5044667;28;20048;-40
2022/09/27 11:50:24;;;;;;;1.30;0.10;;;12.60;99.90;;;;;;5044911;28;20510;-40
2022/09/27 11:52:57;;;;;;;0.55;0.00;;;12.40;99.90;;;;;;4981922;28;20084;-39
2022/09/27 11:55:42;;;;;;;0.03;0.00;;;12.30;99.90;;;;;;5034514;28;20057;-40
2022/09/27 11:58:52;;;;;;;0.60;0.00;;;12.10;99.90;;;;;;5043052;28;20064;-40
2022/09/27 12:01:20;;;;;;;0.50;0.00;;;12.00;99.90;;;;;;5006840;28;20052;-39
2022/09/27 12:04:14;;;;;;;2.33;0.00;;;11.80;99.90;;;;;;5044474;28;20048;-39
2022/09/27 12:06:48;;;;;;;1.38;0.00;;;11.80;99.90;;;;;;5044204;28;20491;-40
2022/09/27 12:09:19;;;;;;;0.20;0.00;;;11.90;99.90;;;;;;5044639;28;20051;-39
2022/09/27 12:11:53;;;;;;;1.60;0.00;;;12.30;99.90;;;;;;5044429;28;20072;-38
2022/09/27 12:14:47;;;;;;;1.90;0.20;;;12.70;99.90;;;;;;5044032;28;20483;-42
2022/09/27 12:17:26;;;;;;;1.48;0.00;;;13.10;99.90;;;;;;5037821;28;20060;-39
2022/09/27 12:19:55;;;;;;;0.45;0.00;;;13.60;99.90;;;;;;5043349;28;20804;-39
2022/09/27 12:22:31;;;;;;;1.73;0.00;;;13.90;99.90;;;;;;5043811;28;20517;-39
2022/09/27 12:24:58;;;;;;;1.27;0.00;;;13.80;99.90;;;;;;5043114;28;20048;-39
2022/09/27 12:27:51;;;;;;;0.15;0.00;;;13.60;99.90;;;;;;5043731;28;20045;-40
2022/09/27 12:30:16;;;;;;;1.90;0.00;;;13.50;99.90;;;;;;5043451;28;20395;-39
2022/09/27 12:32:48;;;;;;;0.80;0.10;;;13.50;99.90;;;;;;5044100;28;20048;-39
2022/09/27 12:35:20;;;;;;;2.10;0.10;;;13.50;99.90;;;;;;5043857;28;20055;-39
2022/09/27 12:38:08;;;;;;;0.38;0.00;;;13.40;99.90;;;;;;5044253;28;20045;-39
2022/09/27 12:40:35;;;;;;;0.57;0.00;;;13.30;99.90;;;;;;5043279;28;20080;-39
2022/09/27 12:43:12;;;;;;;3.13;0.00;;;13.60;99.90;;;;;;5044245;28;20041;-39
2022/09/27 12:45:38;;;;;;;0.45;0.00;;;13.10;99.90;;;;;;5044040;28;20522;-37
2022/09/27 12:48:11;;;;;;;1.90;0.47;;;13.00;99.90;;;;;;5043744;28;20053;-38
2022/09/27 12:50:59;;;;;;;1.70;0.00;;;13.00;99.90;;;;;;5042537;28;20077;-37
2022/09/27 12:53:52;;;;;;;1.20;0.10;;;12.90;99.90;;;;;;5043570;28;20110;-37
2022/09/27 12:56:44;;;;;;;0.82;0.05;;;13.10;99.90;;;;;;5031325;28;20071;-38
2022/09/27 12:59:22;;;;;;;2.47;0.00;;;12.70;99.90;;;;;;5042732;28;20045;-38
2022/09/27 13:02:17;;;;;;;0.73;0.00;;;12.60;99.90;;;;;;5042735;28;20085;-39
2022/09/27 13:05:11;;;;;;;2.53;0.10;;;12.60;99.90;;;;;;5043139;28;20067;-38
2022/09/27 13:07:45;;;;;;;1.67;0.10;;;12.60;99.90;;;;;;5043677;28;20051;-38
2022/09/27 13:10:34;;;;;;;2.67;0.10;;;12.60;99.90;;;;;;5043498;28;20093;-38
2022/09/27 13:13:03;;;;;;;1.98;0.00;;;13.10;99.90;;;;;;5042873;28;20049;-38
2022/09/27 13:15:35;;;;;;;0.50;0.00;;;12.70;99.90;;;;;;5042664;28;20088;-39
2022/09/27 13:18:04;;;;;;;2.22;0.08;;;12.50;99.90;;;;;;5042702;28;20071;-38
2022/09/27 13:20:35;;;;;;;2.05;0.10;;;12.60;99.90;;;;;;5043765;28;20093;-45
2022/09/27 13:23:24;;;;;;;3.22;0.00;;;12.10;99.90;;;;;;5043745;28;20045;-43
2022/09/27 13:26:02;;;;;;;0.90;0.10;;;12.30;99.90;;;;;;5043937;28;20049;-43
2022/09/27 13:28:31;;;;;;;8.48;0.43;;;11.80;99.90;;;;;;5044138;28;20052;-42
2022/09/27 13:31:02;;;;;;;2.60;0.28;;;12.00;99.90;;;;;;5043313;28;20059;-39